HZA42 VHHH-OERK
Flight info
| Callsign | HZA42 |
|---|---|
| Flight time | N/A |
| Altitude | 36000 |
| Route | PECAN V10 SIKOU/K0893S1100 R339 BSE A599 LXI/K0885S1160 A599 LINSO/N0479F380 A599 CTG B465 CEA G450 JJS A791 BPL W40 IID/N0476F400 W40 AAE L639 RASKI N881 KIPOL L444 TOLDA M628 TULBU G652 TOKRA/N0438F280 Y511 BOSOB M321 RESAL |
| Aircraft | A346/H-SDE2E3FGHIJ3J4J5M1RWXY/LB1D1 |
Departure
| Time | 2026-05-05 22:10 |
|---|---|
| Airport | Hong Kong International Airport (VHHH) |
Arrival
| Time | N/A |
|---|---|
| Airport | King Khalid International Airport (OERK) |
| Time | Latitude | Longitude | Altitude | Speed | Heading |
|---|---|---|---|---|---|
| 2026-05-05 21:41 | 22.30864 | 113.91427 | 42 ft | 0 kts | 251° |
| 2026-05-05 21:58 | 22.30866 | 113.91434 | 42 ft | 2 kts | 251° |
| 2026-05-05 21:59 | 22.30873 | 113.91454 | 42 ft | 3 kts | 251° |
| 2026-05-05 21:59 | 22.30880 | 113.91475 | 39 ft | 3 kts | 251° |
| 2026-05-05 21:59 | 22.30886 | 113.91494 | 39 ft | 2 kts | 251° |
| 2026-05-05 21:59 | 22.30890 | 113.91508 | 40 ft | 3 kts | 266° |
| 2026-05-05 22:00 | 22.30889 | 113.91518 | 40 ft | 3 kts | 300° |
| 2026-05-05 22:00 | 22.30888 | 113.91521 | 39 ft | 3 kts | 338° |
| 2026-05-05 22:00 | 22.30871 | 113.91525 | 38 ft | 3 kts | 350° |
| 2026-05-05 22:00 | 22.30851 | 113.91530 | 37 ft | 3 kts | 346° |
| 2026-05-05 22:01 | 22.30836 | 113.91534 | 38 ft | 1 kts | 339° |
| 2026-05-05 22:01 | 22.30834 | 113.91535 | 38 ft | 0 kts | 338° |
| 2026-05-05 22:03 | 22.30835 | 113.91535 | 38 ft | 0 kts | 338° |
| 2026-05-05 22:03 | 22.30846 | 113.91530 | 37 ft | 4 kts | 338° |
| 2026-05-05 22:04 | 22.30891 | 113.91511 | 40 ft | 10 kts | 340° |
| 2026-05-05 22:04 | 22.30974 | 113.91480 | 40 ft | 15 kts | 341° |
| 2026-05-05 22:04 | 22.31091 | 113.91437 | 40 ft | 20 kts | 341° |
| 2026-05-05 22:04 | 22.31227 | 113.91387 | 40 ft | 22 kts | 341° |
| 2026-05-05 22:05 | 22.31342 | 113.91343 | 40 ft | 10 kts | 339° |
| 2026-05-05 22:05 | 22.31377 | 113.91277 | 41 ft | 12 kts | 267° |
| 2026-05-05 22:05 | 22.31354 | 113.91182 | 41 ft | 14 kts | 252° |
| 2026-05-05 22:05 | 22.31320 | 113.91078 | 41 ft | 15 kts | 250° |
| 2026-05-05 22:06 | 22.31283 | 113.90966 | 41 ft | 17 kts | 251° |
| 2026-05-05 22:06 | 22.31242 | 113.90839 | 41 ft | 19 kts | 251° |
| 2026-05-05 22:06 | 22.31198 | 113.90701 | 41 ft | 21 kts | 251° |
| 2026-05-05 22:06 | 22.31148 | 113.90545 | 40 ft | 23 kts | 251° |
| 2026-05-05 22:07 | 22.31094 | 113.90377 | 40 ft | 24 kts | 251° |
| 2026-05-05 22:07 | 22.31037 | 113.90201 | 40 ft | 25 kts | 251° |
| 2026-05-05 22:07 | 22.30979 | 113.90024 | 40 ft | 21 kts | 250° |
| 2026-05-05 22:07 | 22.30946 | 113.89920 | 40 ft | 11 kts | 250° |
| 2026-05-05 22:08 | 22.30934 | 113.89837 | 40 ft | 11 kts | 296° |
| 2026-05-05 22:08 | 22.31009 | 113.89785 | 38 ft | 15 kts | 335° |
| 2026-05-05 22:08 | 22.31060 | 113.89774 | 38 ft | 7 kts | 14° |
| 2026-05-05 22:08 | 22.31090 | 113.89809 | 38 ft | 0 kts | 64° |
| 2026-05-05 22:09 | 22.31102 | 113.89837 | 38 ft | 18 kts | 67° |
| 2026-05-05 22:09 | 22.31218 | 113.90192 | 39 ft | 80 kts | 70° |
| 2026-05-05 22:09 | 22.31466 | 113.90961 | 40 ft | 134 kts | 71° |
| 2026-05-05 22:10 | 22.31825 | 113.92071 | 44 ft | 177 kts | 71° |
| 2026-05-05 22:10 | 22.32222 | 113.93373 | 464 ft | 185 kts | 72° |
| 2026-05-05 22:10 | 22.32636 | 113.94713 | 1034 ft | 190 kts | 72° |
| 2026-05-05 22:10 | 22.33077 | 113.96083 | 1541 ft | 198 kts | 74° |
| 2026-05-05 22:11 | 22.33445 | 113.97576 | 1859 ft | 213 kts | 80° |
| 2026-05-05 22:11 | 22.33732 | 113.99215 | 2163 ft | 231 kts | 82° |
| 2026-05-05 22:11 | 22.34026 | 114.00992 | 2482 ft | 249 kts | 82° |
| 2026-05-05 22:11 | 22.34333 | 114.02891 | 2995 ft | 260 kts | 84° |
| 2026-05-05 22:12 | 22.34265 | 114.04853 | 3550 ft | 265 kts | 108° |
| 2026-05-05 22:12 | 22.33426 | 114.06618 | 4203 ft | 266 kts | 133° |
| 2026-05-05 22:12 | 22.32002 | 114.07898 | 4839 ft | 270 kts | 152° |
| 2026-05-05 22:12 | 22.30244 | 114.08639 | 5415 ft | 273 kts | 172° |
| 2026-05-05 22:13 | 22.28350 | 114.08774 | 6077 ft | 273 kts | 182° |
| 2026-05-05 22:13 | 22.26465 | 114.08740 | 6786 ft | 275 kts | 183° |
| 2026-05-05 22:13 | 22.24541 | 114.08698 | 7497 ft | 278 kts | 183° |
| 2026-05-05 22:13 | 22.22594 | 114.08666 | 8167 ft | 282 kts | 183° |
| 2026-05-05 22:14 | 22.20622 | 114.08643 | 8851 ft | 285 kts | 183° |
| 2026-05-05 22:14 | 22.18626 | 114.08645 | 9551 ft | 289 kts | 178° |
| 2026-05-05 22:14 | 22.16668 | 114.09253 | 10143 ft | 301 kts | 153° |
| 2026-05-05 22:14 | 22.15042 | 114.10751 | 10532 ft | 320 kts | 128° |
| 2026-05-05 22:15 | 22.13916 | 114.12903 | 10830 ft | 337 kts | 119° |
| 2026-05-05 22:15 | 22.12853 | 114.15240 | 11106 ft | 353 kts | 118° |
| 2026-05-05 22:15 | 22.11738 | 114.17678 | 11368 ft | 369 kts | 118° |
| 2026-05-05 22:15 | 22.10557 | 114.20206 | 11619 ft | 384 kts | 119° |
| 2026-05-05 22:16 | 22.09317 | 114.22824 | 11892 ft | 399 kts | 120° |
| 2026-05-05 22:16 | 22.07808 | 114.25371 | 12283 ft | 404 kts | 130° |
| 2026-05-05 22:16 | 22.05916 | 114.27560 | 12889 ft | 404 kts | 141° |
| 2026-05-05 22:16 | 22.03712 | 114.29434 | 13513 ft | 405 kts | 147° |
| 2026-05-05 22:17 | 22.01418 | 114.31224 | 14031 ft | 409 kts | 148° |
| 2026-05-05 22:17 | 21.98922 | 114.32669 | 14451 ft | 407 kts | 165° |
| 2026-05-05 22:17 | 21.96149 | 114.33160 | 14938 ft | 402 kts | 184° |
| 2026-05-05 22:17 | 21.93410 | 114.32689 | 15412 ft | 398 kts | 201° |
| 2026-05-05 22:18 | 21.90964 | 114.31333 | 15844 ft | 396 kts | 218° |
| 2026-05-05 22:18 | 21.88794 | 114.29493 | 16328 ft | 398 kts | 221° |
| 2026-05-05 22:18 | 21.86617 | 114.27615 | 16756 ft | 403 kts | 221° |
| 2026-05-05 22:18 | 21.85161 | 114.26362 | 17026 ft | 406 kts | 220° |
| 2026-05-05 22:19 | 21.82939 | 114.24457 | 17435 ft | 410 kts | 221° |
| 2026-05-05 22:19 | 21.80687 | 114.22535 | 17865 ft | 414 kts | 220° |
| 2026-05-05 22:19 | 21.77669 | 114.19969 | 18373 ft | 419 kts | 220° |
| 2026-05-05 22:19 | 21.75369 | 114.18016 | 18743 ft | 422 kts | 220° |
| 2026-05-05 22:20 | 21.73058 | 114.16056 | 19121 ft | 425 kts | 221° |
| 2026-05-05 22:20 | 21.70729 | 114.14079 | 19510 ft | 427 kts | 220° |
| 2026-05-05 22:20 | 21.69147 | 114.12735 | 19763 ft | 429 kts | 221° |
| 2026-05-05 22:20 | 21.66743 | 114.10805 | 20127 ft | 434 kts | 216° |
| 2026-05-05 22:21 | 21.64091 | 114.09208 | 20487 ft | 439 kts | 208° |
| 2026-05-05 22:21 | 21.61258 | 114.08020 | 20867 ft | 445 kts | 200° |
| 2026-05-05 22:21 | 21.58243 | 114.07159 | 21223 ft | 449 kts | 197° |
| 2026-05-05 22:21 | 21.55187 | 114.06375 | 21587 ft | 452 kts | 196° |
| 2026-05-05 22:22 | 21.52120 | 114.05599 | 21964 ft | 454 kts | 197° |
| 2026-05-05 22:22 | 21.49069 | 114.04820 | 22319 ft | 457 kts | 197° |
| 2026-05-05 22:22 | 21.46017 | 114.03869 | 22664 ft | 457 kts | 203° |
| 2026-05-05 22:22 | 21.43082 | 114.02567 | 23020 ft | 456 kts | 209° |
| 2026-05-05 22:23 | 21.40301 | 114.00935 | 23370 ft | 455 kts | 215° |
| 2026-05-05 22:23 | 21.37631 | 113.99088 | 23682 ft | 457 kts | 217° |
| 2026-05-05 22:23 | 21.34973 | 113.97203 | 23970 ft | 459 kts | 217° |
| 2026-05-05 22:23 | 21.32301 | 113.95300 | 24269 ft | 461 kts | 217° |
| 2026-05-05 22:24 | 21.29599 | 113.93379 | 24558 ft | 463 kts | 217° |
| 2026-05-05 22:24 | 21.26903 | 113.91469 | 24878 ft | 465 kts | 217° |
| 2026-05-05 22:24 | 21.24192 | 113.89553 | 25189 ft | 466 kts | 217° |
| 2026-05-05 22:24 | 21.21474 | 113.87633 | 25483 ft | 468 kts | 217° |
| 2026-05-05 22:25 | 21.18782 | 113.85735 | 25771 ft | 470 kts | 217° |
| 2026-05-05 22:25 | 21.16036 | 113.83800 | 26069 ft | 472 kts | 217° |
| 2026-05-05 22:25 | 21.13276 | 113.81852 | 26355 ft | 474 kts | 218° |
| 2026-05-05 22:25 | 21.10712 | 113.79633 | 26600 ft | 471 kts | 229° |
| 2026-05-05 22:26 | 21.08648 | 113.76923 | 26887 ft | 467 kts | 239° |
| 2026-05-05 22:26 | 21.07135 | 113.73862 | 27176 ft | 464 kts | 250° |
| 2026-05-05 22:26 | 21.06046 | 113.70646 | 27484 ft | 465 kts | 253° |
| 2026-05-05 22:26 | 21.04983 | 113.67349 | 27758 ft | 467 kts | 253° |
| 2026-05-05 22:27 | 21.03927 | 113.64053 | 28114 ft | 467 kts | 253° |
| 2026-05-05 22:27 | 21.02871 | 113.60768 | 28542 ft | 465 kts | 253° |
| 2026-05-05 22:27 | 21.01814 | 113.57491 | 28978 ft | 464 kts | 253° |
| 2026-05-05 22:27 | 21.00757 | 113.54223 | 29389 ft | 463 kts | 253° |
| 2026-05-05 22:28 | 20.99718 | 113.51019 | 29812 ft | 462 kts | 253° |
| 2026-05-05 22:28 | 20.98659 | 113.47755 | 30189 ft | 461 kts | 253° |
| 2026-05-05 22:28 | 20.97606 | 113.44515 | 30545 ft | 460 kts | 253° |
| 2026-05-05 22:28 | 20.96556 | 113.41284 | 30914 ft | 458 kts | 253° |
| 2026-05-05 22:29 | 20.95508 | 113.38063 | 31283 ft | 456 kts | 253° |
| 2026-05-05 22:29 | 20.94462 | 113.34855 | 31654 ft | 455 kts | 253° |
| 2026-05-05 22:29 | 20.93420 | 113.31660 | 32042 ft | 453 kts | 253° |
| 2026-05-05 22:29 | 20.92382 | 113.28479 | 32416 ft | 451 kts | 253° |
| 2026-05-05 22:30 | 20.91361 | 113.25356 | 32809 ft | 449 kts | 253° |
| 2026-05-05 22:30 | 20.90317 | 113.22161 | 33202 ft | 448 kts | 253° |
| 2026-05-05 22:30 | 20.89302 | 113.19060 | 33580 ft | 446 kts | 253° |
| 2026-05-05 22:30 | 20.88275 | 113.15922 | 33962 ft | 444 kts | 253° |
| 2026-05-05 22:31 | 20.87256 | 113.12810 | 34278 ft | 443 kts | 253° |
| 2026-05-05 22:31 | 20.86233 | 113.09692 | 34523 ft | 443 kts | 253° |
| 2026-05-05 22:31 | 20.85210 | 113.06573 | 34725 ft | 444 kts | 253° |
| 2026-05-05 22:31 | 20.84184 | 113.03447 | 34942 ft | 445 kts | 253° |
| 2026-05-05 22:32 | 20.83157 | 113.00318 | 35157 ft | 446 kts | 253° |
| 2026-05-05 22:32 | 20.82123 | 112.97178 | 35326 ft | 448 kts | 253° |
| 2026-05-05 22:32 | 20.81084 | 112.94019 | 35469 ft | 451 kts | 253° |
| 2026-05-05 22:32 | 20.80040 | 112.90845 | 35651 ft | 452 kts | 253° |
| 2026-05-05 22:33 | 20.78993 | 112.87663 | 35863 ft | 453 kts | 253° |
| 2026-05-05 22:33 | 20.77946 | 112.84487 | 36012 ft | 454 kts | 253° |
| 2026-05-05 22:33 | 20.76895 | 112.81298 | 36019 ft | 454 kts | 253° |
| 2026-05-05 22:34 | 20.74803 | 112.74960 | 36030 ft | 455 kts | 253° |
| 2026-05-05 22:34 | 20.72693 | 112.68579 | 36026 ft | 455 kts | 253° |
| 2026-05-05 22:35 | 20.70579 | 112.62195 | 36029 ft | 455 kts | 253° |
| 2026-05-05 22:35 | 20.68461 | 112.55807 | 36029 ft | 455 kts | 253° |
| 2026-05-05 22:36 | 20.66341 | 112.49426 | 36026 ft | 455 kts | 253° |
| 2026-05-05 22:36 | 20.64234 | 112.43088 | 36024 ft | 455 kts | 253° |
| 2026-05-05 22:37 | 20.62108 | 112.36707 | 36026 ft | 455 kts | 252° |
| 2026-05-05 22:37 | 20.59980 | 112.30329 | 36026 ft | 455 kts | 252° |
| 2026-05-05 22:38 | 20.57993 | 112.23953 | 36020 ft | 453 kts | 258° |
| 2026-05-05 22:38 | 20.57214 | 112.17302 | 36021 ft | 451 kts | 271° |
| 2026-05-05 22:39 | 20.57872 | 112.10657 | 36022 ft | 450 kts | 283° |
| 2026-05-05 22:39 | 20.59920 | 112.04342 | 36024 ft | 451 kts | 294° |
| 2026-05-05 22:40 | 20.62620 | 111.98288 | 36021 ft | 451 kts | 295° |
| 2026-05-05 22:40 | 20.65337 | 111.92281 | 36024 ft | 451 kts | 295° |
| 2026-05-05 22:41 | 20.68065 | 111.86240 | 36023 ft | 451 kts | 295° |
| 2026-05-05 22:41 | 20.70788 | 111.80199 | 36023 ft | 451 kts | 295° |
| 2026-05-05 22:42 | 20.73520 | 111.74129 | 36021 ft | 452 kts | 295° |
| 2026-05-05 22:42 | 20.76247 | 111.68059 | 36021 ft | 453 kts | 295° |
| 2026-05-05 22:43 | 20.78972 | 111.61984 | 36023 ft | 453 kts | 295° |
| 2026-05-05 22:43 | 20.81683 | 111.55935 | 36023 ft | 453 kts | 295° |
| 2026-05-05 22:44 | 20.84160 | 111.49672 | 36025 ft | 452 kts | 289° |
| 2026-05-05 22:44 | 20.86025 | 111.43240 | 36026 ft | 452 kts | 285° |
| 2026-05-05 22:45 | 20.87657 | 111.36726 | 36022 ft | 452 kts | 285° |
| 2026-05-05 22:45 | 20.89277 | 111.30217 | 36021 ft | 452 kts | 285° |
| 2026-05-05 22:46 | 20.90895 | 111.23704 | 36023 ft | 452 kts | 284° |
| 2026-05-05 22:46 | 20.92510 | 111.17190 | 36023 ft | 452 kts | 284° |
| 2026-05-05 22:47 | 20.94117 | 111.10699 | 36017 ft | 452 kts | 284° |
| 2026-05-05 22:47 | 20.95733 | 111.04175 | 36018 ft | 452 kts | 285° |
| 2026-05-05 22:48 | 20.97382 | 110.97668 | 36021 ft | 452 kts | 285° |
| 2026-05-05 22:48 | 20.99032 | 110.91156 | 36024 ft | 452 kts | 285° |
| 2026-05-05 22:49 | 21.00664 | 110.84689 | 36022 ft | 452 kts | 285° |
| 2026-05-05 22:49 | 21.02306 | 110.78168 | 36018 ft | 452 kts | 285° |
| 2026-05-05 22:50 | 21.03944 | 110.71646 | 36020 ft | 453 kts | 285° |
| 2026-05-05 22:50 | 21.05590 | 110.65082 | 36021 ft | 453 kts | 285° |
| 2026-05-05 22:51 | 21.07222 | 110.58558 | 36021 ft | 453 kts | 284° |
| 2026-05-05 22:51 | 21.08897 | 110.51852 | 36020 ft | 453 kts | 284° |
| 2026-05-05 22:52 | 21.10531 | 110.45292 | 36020 ft | 453 kts | 284° |
| 2026-05-05 22:52 | 21.12204 | 110.38753 | 36018 ft | 453 kts | 287° |
| 2026-05-05 22:53 | 21.14360 | 110.32370 | 36016 ft | 454 kts | 292° |
| 2026-05-05 22:53 | 21.17087 | 110.26267 | 36017 ft | 454 kts | 297° |
| 2026-05-05 22:54 | 21.20094 | 110.20277 | 36016 ft | 454 kts | 297° |
| 2026-05-05 22:54 | 21.23095 | 110.14323 | 36023 ft | 453 kts | 297° |
| 2026-05-05 22:55 | 21.26087 | 110.08376 | 36018 ft | 453 kts | 297° |
| 2026-05-05 22:55 | 21.29115 | 110.02353 | 36019 ft | 453 kts | 297° |
| 2026-05-05 22:56 | 21.32089 | 109.96428 | 36019 ft | 453 kts | 297° |
| 2026-05-05 22:56 | 21.35078 | 109.90468 | 36018 ft | 453 kts | 297° |
| 2026-05-05 22:57 | 21.38072 | 109.84490 | 36020 ft | 453 kts | 297° |
| 2026-05-05 22:57 | 21.41037 | 109.78564 | 36016 ft | 453 kts | 297° |
| 2026-05-05 22:58 | 21.44025 | 109.72586 | 36019 ft | 452 kts | 297° |
| 2026-05-05 22:58 | 21.46996 | 109.66632 | 36017 ft | 452 kts | 297° |
| 2026-05-05 22:59 | 21.49969 | 109.60668 | 36016 ft | 452 kts | 297° |
| 2026-05-05 22:59 | 21.52963 | 109.54653 | 36015 ft | 452 kts | 297° |
| 2026-05-05 23:00 | 21.57545 | 109.45740 | 36022 ft | 453 kts | 301° |
| 2026-05-05 23:00 | 21.61109 | 109.40192 | 36026 ft | 454 kts | 306° |
| 2026-05-05 23:01 | 21.65121 | 109.34930 | 36017 ft | 454 kts | 308° |
| 2026-05-05 23:01 | 21.69192 | 109.29718 | 36021 ft | 454 kts | 308° |
| 2026-05-05 23:02 | 21.73267 | 109.24501 | 36021 ft | 454 kts | 308° |
| 2026-05-05 23:02 | 21.77319 | 109.19306 | 36016 ft | 454 kts | 308° |
| 2026-05-05 23:03 | 21.81390 | 109.14078 | 36015 ft | 454 kts | 308° |
| 2026-05-05 23:03 | 21.85459 | 109.08849 | 36020 ft | 455 kts | 308° |
| 2026-05-05 23:04 | 21.89516 | 109.03674 | 36017 ft | 455 kts | 309° |
| 2026-05-05 23:04 | 21.93602 | 108.98460 | 36019 ft | 455 kts | 308° |
| 2026-05-05 23:05 | 21.97687 | 108.93237 | 36020 ft | 455 kts | 308° |
| 2026-05-05 23:05 | 22.01753 | 108.88026 | 36021 ft | 454 kts | 309° |
| 2026-05-05 23:06 | 22.05827 | 108.82803 | 36012 ft | 454 kts | 309° |
| 2026-05-05 23:06 | 22.09956 | 108.77503 | 36012 ft | 454 kts | 309° |
| 2026-05-05 23:07 | 22.14005 | 108.72315 | 36017 ft | 454 kts | 309° |
| 2026-05-05 23:07 | 22.18095 | 108.67095 | 36020 ft | 454 kts | 309° |
| 2026-05-05 23:08 | 22.21483 | 108.62763 | 36016 ft | 454 kts | 309° |
| 2026-05-05 23:08 | 22.25557 | 108.57547 | 36016 ft | 453 kts | 309° |
| 2026-05-05 23:09 | 22.29627 | 108.52329 | 36020 ft | 453 kts | 309° |
| 2026-05-05 23:09 | 22.33696 | 108.47106 | 36020 ft | 454 kts | 309° |
| 2026-05-05 23:10 | 22.37740 | 108.41909 | 36024 ft | 454 kts | 309° |
| 2026-05-05 23:10 | 22.41811 | 108.36674 | 36021 ft | 453 kts | 309° |
| 2026-05-05 23:11 | 22.45883 | 108.31431 | 36018 ft | 453 kts | 309° |
| 2026-05-05 23:11 | 22.49920 | 108.26227 | 36017 ft | 453 kts | 309° |
| 2026-05-05 23:12 | 22.53984 | 108.20982 | 36011 ft | 453 kts | 308° |
| 2026-05-05 23:12 | 22.58050 | 108.15750 | 36011 ft | 454 kts | 310° |
| 2026-05-05 23:13 | 22.62352 | 108.10736 | 36011 ft | 454 kts | 312° |
| 2026-05-05 23:13 | 22.66676 | 108.05803 | 36014 ft | 454 kts | 312° |
| 2026-05-05 23:14 | 22.71025 | 108.00834 | 36024 ft | 454 kts | 312° |
| 2026-05-05 23:14 | 22.75379 | 107.95851 | 36016 ft | 454 kts | 312° |
| 2026-05-05 23:15 | 22.79735 | 107.90860 | 36015 ft | 454 kts | 312° |
| 2026-05-05 23:15 | 22.84058 | 107.85902 | 36015 ft | 454 kts | 312° |
| 2026-05-05 23:16 | 22.88402 | 107.80915 | 36015 ft | 454 kts | 312° |
| 2026-05-05 23:16 | 22.92746 | 107.75920 | 36015 ft | 454 kts | 312° |
| 2026-05-05 23:17 | 22.97099 | 107.70913 | 36014 ft | 454 kts | 311° |
| 2026-05-05 23:17 | 23.01440 | 107.65910 | 36015 ft | 453 kts | 311° |
| 2026-05-05 23:18 | 23.05775 | 107.60919 | 36013 ft | 453 kts | 312° |
| 2026-05-05 23:18 | 23.10073 | 107.55974 | 36015 ft | 452 kts | 311° |
| 2026-05-05 23:19 | 23.14391 | 107.50995 | 36010 ft | 451 kts | 311° |
| 2026-05-05 23:19 | 23.18702 | 107.46017 | 36009 ft | 452 kts | 311° |
| 2026-05-05 23:20 | 23.23012 | 107.41034 | 36010 ft | 451 kts | 311° |
| 2026-05-05 23:20 | 23.27299 | 107.36075 | 36007 ft | 451 kts | 311° |
| 2026-05-05 23:21 | 23.31608 | 107.31083 | 36001 ft | 451 kts | 311° |
| 2026-05-05 23:21 | 23.35913 | 107.26092 | 36002 ft | 451 kts | 311° |
| 2026-05-05 23:22 | 23.40190 | 107.21127 | 36007 ft | 451 kts | 311° |
| 2026-05-05 23:22 | 23.44489 | 107.16132 | 35997 ft | 450 kts | 311° |
| 2026-05-05 23:23 | 23.48772 | 107.11151 | 35997 ft | 450 kts | 311° |
| 2026-05-05 23:23 | 23.53071 | 107.06145 | 35995 ft | 450 kts | 311° |
| 2026-05-05 23:24 | 23.57359 | 107.01148 | 35984 ft | 450 kts | 311° |
| 2026-05-05 23:24 | 23.61614 | 106.96183 | 35986 ft | 450 kts | 311° |
| 2026-05-05 23:25 | 23.65895 | 106.91181 | 35989 ft | 450 kts | 311° |
| 2026-05-05 23:25 | 23.70170 | 106.86183 | 35984 ft | 450 kts | 311° |
| 2026-05-05 23:26 | 23.74444 | 106.81180 | 35986 ft | 450 kts | 311° |
| 2026-05-05 23:26 | 23.78715 | 106.76174 | 35989 ft | 449 kts | 311° |
| 2026-05-05 23:27 | 23.82948 | 106.71205 | 35978 ft | 449 kts | 311° |
| 2026-05-05 23:27 | 23.86976 | 106.66009 | 35979 ft | 446 kts | 302° |
| 2026-05-05 23:28 | 23.89828 | 106.60005 | 35978 ft | 445 kts | 290° |
| 2026-05-05 23:28 | 23.91331 | 106.53447 | 35978 ft | 446 kts | 278° |
| 2026-05-05 23:29 | 23.91437 | 106.46657 | 35976 ft | 447 kts | 268° |
| 2026-05-05 23:29 | 23.91014 | 106.39860 | 35969 ft | 447 kts | 268° |
| 2026-05-05 23:30 | 23.90566 | 106.33096 | 35974 ft | 447 kts | 267° |
| 2026-05-05 23:30 | 23.90114 | 106.26303 | 35970 ft | 447 kts | 267° |
| 2026-05-05 23:31 | 23.89659 | 106.19526 | 35963 ft | 447 kts | 267° |
| 2026-05-05 23:31 | 23.89201 | 106.12726 | 35973 ft | 447 kts | 267° |
| 2026-05-05 23:32 | 23.88740 | 106.05938 | 35969 ft | 447 kts | 267° |
| 2026-05-05 23:32 | 23.88278 | 105.99159 | 35974 ft | 446 kts | 267° |
| 2026-05-05 23:33 | 23.87814 | 105.92393 | 35980 ft | 445 kts | 267° |
| 2026-05-05 23:33 | 23.87345 | 105.85633 | 35972 ft | 445 kts | 267° |
| 2026-05-05 23:34 | 23.86873 | 105.78856 | 35969 ft | 446 kts | 267° |
| 2026-05-05 23:34 | 23.86401 | 105.72107 | 35979 ft | 446 kts | 267° |
| 2026-05-05 23:35 | 23.85923 | 105.65336 | 35973 ft | 446 kts | 267° |
| 2026-05-05 23:35 | 23.85443 | 105.58570 | 35977 ft | 445 kts | 267° |
| 2026-05-05 23:36 | 23.84961 | 105.51814 | 35981 ft | 445 kts | 267° |
| 2026-05-05 23:36 | 23.84476 | 105.45051 | 35988 ft | 445 kts | 267° |
| 2026-05-05 23:37 | 23.83990 | 105.38333 | 35986 ft | 445 kts | 267° |
| 2026-05-05 23:37 | 23.83496 | 105.31533 | 35992 ft | 445 kts | 266° |
| 2026-05-05 23:38 | 23.83006 | 105.24810 | 35992 ft | 445 kts | 266° |
| 2026-05-05 23:38 | 23.82508 | 105.18040 | 35995 ft | 446 kts | 266° |
| 2026-05-05 23:39 | 23.82009 | 105.11304 | 35999 ft | 446 kts | 266° |
| 2026-05-05 23:39 | 23.81505 | 105.04546 | 35998 ft | 445 kts | 266° |
| 2026-05-05 23:40 | 23.81000 | 104.97794 | 36000 ft | 445 kts | 266° |
| 2026-05-05 23:40 | 23.80490 | 104.91033 | 36011 ft | 445 kts | 266° |
| 2026-05-05 23:41 | 23.79981 | 104.84302 | 36009 ft | 444 kts | 266° |
| 2026-05-05 23:41 | 23.79471 | 104.77625 | 36006 ft | 443 kts | 266° |
| 2026-05-05 23:42 | 23.78955 | 104.70889 | 36010 ft | 444 kts | 266° |
| 2026-05-05 23:42 | 23.78435 | 104.64153 | 36021 ft | 444 kts | 266° |
| 2026-05-05 23:43 | 23.77916 | 104.57463 | 36019 ft | 444 kts | 266° |
| 2026-05-05 23:43 | 23.77392 | 104.50741 | 36027 ft | 444 kts | 266° |
| 2026-05-05 23:44 | 23.76864 | 104.44004 | 36036 ft | 444 kts | 266° |
| 2026-05-05 23:44 | 23.76334 | 104.37278 | 36036 ft | 443 kts | 266° |
| 2026-05-05 23:45 | 23.75801 | 104.30549 | 36046 ft | 444 kts | 266° |
| 2026-05-05 23:45 | 23.75265 | 104.23834 | 36044 ft | 444 kts | 266° |
| 2026-05-05 23:46 | 23.74730 | 104.17154 | 36064 ft | 443 kts | 266° |
| 2026-05-05 23:46 | 23.74188 | 104.10434 | 36062 ft | 442 kts | 266° |
| 2026-05-05 23:47 | 23.73645 | 104.03734 | 36052 ft | 443 kts | 266° |
| 2026-05-05 23:47 | 23.73097 | 103.97000 | 36067 ft | 444 kts | 266° |
| 2026-05-05 23:48 | 23.72549 | 103.90306 | 36080 ft | 445 kts | 265° |
| 2026-05-05 23:48 | 23.71993 | 103.83574 | 36079 ft | 445 kts | 266° |
| 2026-05-05 23:49 | 23.71435 | 103.76826 | 36091 ft | 445 kts | 265° |
| 2026-05-05 23:49 | 23.70874 | 103.70083 | 36091 ft | 445 kts | 265° |
| 2026-05-05 23:50 | 23.70309 | 103.63331 | 36099 ft | 446 kts | 265° |
| 2026-05-05 23:50 | 23.69741 | 103.56586 | 36099 ft | 445 kts | 265° |
| 2026-05-05 23:51 | 23.69175 | 103.49890 | 36097 ft | 445 kts | 265° |
| 2026-05-05 23:51 | 23.68603 | 103.43145 | 36092 ft | 446 kts | 265° |
| 2026-05-05 23:52 | 23.68026 | 103.36392 | 36094 ft | 446 kts | 265° |
| 2026-05-05 23:52 | 23.67445 | 103.29632 | 36087 ft | 446 kts | 265° |
| 2026-05-05 23:53 | 23.66866 | 103.22926 | 36088 ft | 446 kts | 265° |
| 2026-05-05 23:53 | 23.66280 | 103.16175 | 36082 ft | 445 kts | 265° |
| 2026-05-05 23:54 | 23.65693 | 103.09433 | 36087 ft | 445 kts | 265° |
| 2026-05-05 23:54 | 23.65202 | 103.03831 | 36089 ft | 444 kts | 265° |
| 2026-05-05 23:55 | 23.64513 | 102.96010 | 36086 ft | 444 kts | 265° |
| 2026-05-05 23:55 | 23.63919 | 102.89296 | 36093 ft | 444 kts | 265° |
| 2026-05-05 23:56 | 23.63423 | 102.83717 | 36096 ft | 444 kts | 265° |
| 2026-05-05 23:56 | 23.62822 | 102.76995 | 36097 ft | 444 kts | 265° |
| 2026-05-05 23:57 | 23.62221 | 102.70303 | 36096 ft | 442 kts | 265° |
| 2026-05-05 23:57 | 23.61622 | 102.63654 | 36098 ft | 442 kts | 265° |
| 2026-05-05 23:58 | 23.61017 | 102.56981 | 36081 ft | 441 kts | 265° |
| 2026-05-05 23:58 | 23.60410 | 102.50300 | 36084 ft | 441 kts | 265° |
| 2026-05-05 23:59 | 23.59798 | 102.43622 | 36072 ft | 441 kts | 265° |
| 2026-05-05 23:59 | 23.59189 | 102.37000 | 36085 ft | 441 kts | 265° |
| 2026-05-06 00:00 | 23.58573 | 102.30331 | 36080 ft | 441 kts | 265° |
| 2026-05-06 00:00 | 23.57956 | 102.23686 | 36059 ft | 440 kts | 265° |
| 2026-05-06 00:01 | 23.57332 | 102.16996 | 36075 ft | 444 kts | 265° |
| 2026-05-06 00:01 | 23.56704 | 102.10283 | 36068 ft | 444 kts | 265° |
| 2026-05-06 00:02 | 23.56077 | 102.03622 | 36094 ft | 444 kts | 265° |
| 2026-05-06 00:02 | 23.55448 | 101.96948 | 36085 ft | 440 kts | 265° |
| 2026-05-06 00:03 | 23.54813 | 101.90280 | 36073 ft | 441 kts | 265° |
| 2026-05-06 00:03 | 23.54179 | 101.83633 | 36084 ft | 440 kts | 265° |
| 2026-05-06 00:04 | 23.53543 | 101.77011 | 36082 ft | 441 kts | 265° |
| 2026-05-06 00:04 | 23.52903 | 101.70346 | 36082 ft | 441 kts | 265° |
| 2026-05-06 00:05 | 23.51938 | 101.60365 | 36090 ft | 439 kts | 264° |
| 2026-05-06 00:06 | 23.51291 | 101.53737 | 36091 ft | 439 kts | 264° |
| 2026-05-06 00:06 | 23.50647 | 101.47157 | 36092 ft | 438 kts | 264° |
| 2026-05-06 00:07 | 23.49997 | 101.40531 | 36082 ft | 439 kts | 264° |
| 2026-05-06 00:07 | 23.49342 | 101.33903 | 36084 ft | 439 kts | 264° |
| 2026-05-06 00:08 | 23.48687 | 101.27285 | 36079 ft | 439 kts | 264° |
| 2026-05-06 00:08 | 23.48028 | 101.20659 | 36074 ft | 439 kts | 264° |
| 2026-05-06 00:09 | 23.47370 | 101.14080 | 36070 ft | 438 kts | 264° |
| 2026-05-06 00:09 | 23.46706 | 101.07460 | 36068 ft | 439 kts | 264° |
| 2026-05-06 00:10 | 23.46036 | 101.00825 | 36066 ft | 439 kts | 264° |
| 2026-05-06 00:10 | 23.45370 | 100.94246 | 36069 ft | 439 kts | 264° |
| 2026-05-06 00:11 | 23.44695 | 100.87611 | 36065 ft | 439 kts | 264° |
| 2026-05-06 00:11 | 23.44018 | 100.80997 | 36059 ft | 439 kts | 264° |
| 2026-05-06 00:12 | 23.43340 | 100.74367 | 36055 ft | 439 kts | 264° |
| 2026-05-06 00:12 | 23.42663 | 100.67786 | 36048 ft | 439 kts | 264° |
| 2026-05-06 00:13 | 23.41977 | 100.61163 | 36057 ft | 439 kts | 264° |
| 2026-05-06 00:13 | 23.41290 | 100.54538 | 36039 ft | 440 kts | 264° |
| 2026-05-06 00:14 | 23.40598 | 100.47902 | 36036 ft | 440 kts | 264° |
| 2026-05-06 00:14 | 23.39903 | 100.41263 | 36022 ft | 441 kts | 264° |
| 2026-05-06 00:15 | 23.39203 | 100.34607 | 36035 ft | 443 kts | 264° |
| 2026-05-06 00:15 | 23.38503 | 100.27972 | 36034 ft | 443 kts | 264° |
| 2026-05-06 00:16 | 23.37794 | 100.21288 | 36051 ft | 443 kts | 264° |
| 2026-05-06 00:16 | 23.37086 | 100.14618 | 36047 ft | 443 kts | 263° |
| 2026-05-06 00:17 | 23.36372 | 100.07951 | 36050 ft | 443 kts | 263° |
| 2026-05-06 00:17 | 23.35655 | 100.01274 | 36052 ft | 443 kts | 263° |
| 2026-05-06 00:18 | 23.34941 | 99.94647 | 36066 ft | 443 kts | 263° |
| 2026-05-06 00:18 | 23.34217 | 99.87965 | 36064 ft | 443 kts | 263° |
| 2026-05-06 00:19 | 23.33494 | 99.81296 | 36071 ft | 443 kts | 263° |
| 2026-05-06 00:19 | 23.32765 | 99.74612 | 36074 ft | 443 kts | 263° |
| 2026-05-06 00:20 | 23.32034 | 99.67940 | 36077 ft | 443 kts | 263° |
| 2026-05-06 00:20 | 23.31302 | 99.61284 | 36071 ft | 443 kts | 263° |
| 2026-05-06 00:21 | 23.30563 | 99.54599 | 36075 ft | 443 kts | 263° |
| 2026-05-06 00:21 | 23.29825 | 99.47927 | 36073 ft | 443 kts | 263° |
| 2026-05-06 00:22 | 23.29082 | 99.41234 | 36079 ft | 445 kts | 263° |
| 2026-05-06 00:22 | 23.28334 | 99.34541 | 36072 ft | 445 kts | 263° |
| 2026-05-06 00:23 | 23.27587 | 99.27894 | 36075 ft | 445 kts | 263° |
| 2026-05-06 00:23 | 23.26837 | 99.21214 | 36068 ft | 444 kts | 262° |
| 2026-05-06 00:24 | 23.26078 | 99.14517 | 36069 ft | 444 kts | 263° |
| 2026-05-06 00:24 | 23.25322 | 99.07833 | 36059 ft | 445 kts | 262° |
| 2026-05-06 00:25 | 23.24560 | 99.01144 | 36059 ft | 445 kts | 262° |
| 2026-05-06 00:25 | 23.23800 | 98.94501 | 36060 ft | 445 kts | 262° |
| 2026-05-06 00:26 | 23.23031 | 98.87804 | 36057 ft | 445 kts | 262° |
| 2026-05-06 00:26 | 23.22257 | 98.81095 | 36061 ft | 445 kts | 262° |
| 2026-05-06 00:27 | 23.21486 | 98.74405 | 36048 ft | 445 kts | 262° |
| 2026-05-06 00:27 | 23.20713 | 98.67749 | 36055 ft | 445 kts | 262° |
| 2026-05-06 00:28 | 23.19935 | 98.61065 | 36052 ft | 445 kts | 262° |
| 2026-05-06 00:28 | 23.19151 | 98.54378 | 36039 ft | 447 kts | 262° |
| 2026-05-06 00:29 | 23.18360 | 98.47635 | 36050 ft | 449 kts | 262° |
| 2026-05-06 00:29 | 23.17565 | 98.40874 | 36052 ft | 449 kts | 262° |
| 2026-05-06 00:30 | 23.16763 | 98.34090 | 36053 ft | 449 kts | 262° |
| 2026-05-06 00:30 | 23.15967 | 98.27387 | 36054 ft | 449 kts | 262° |
| 2026-05-06 00:31 | 23.15162 | 98.20626 | 36049 ft | 449 kts | 262° |
| 2026-05-06 00:31 | 23.14361 | 98.13918 | 36047 ft | 449 kts | 262° |
| 2026-05-06 00:32 | 23.13551 | 98.07167 | 36043 ft | 449 kts | 262° |
| 2026-05-06 00:32 | 23.12740 | 98.00431 | 36044 ft | 449 kts | 262° |
| 2026-05-06 00:33 | 23.11927 | 97.93697 | 36038 ft | 448 kts | 262° |
| 2026-05-06 00:33 | 23.11116 | 97.87018 | 36029 ft | 447 kts | 262° |
| 2026-05-06 00:34 | 23.10297 | 97.80286 | 36031 ft | 447 kts | 262° |
| 2026-05-06 00:34 | 23.09475 | 97.73564 | 36029 ft | 448 kts | 262° |
| 2026-05-06 00:35 | 23.08657 | 97.66890 | 36029 ft | 447 kts | 262° |
| 2026-05-06 00:35 | 23.07832 | 97.60186 | 36030 ft | 447 kts | 262° |
| 2026-05-06 00:36 | 23.07005 | 97.53474 | 36029 ft | 446 kts | 262° |
| 2026-05-06 00:36 | 23.06171 | 97.46755 | 36029 ft | 446 kts | 262° |
| 2026-05-06 00:37 | 23.05338 | 97.40057 | 36029 ft | 446 kts | 262° |